Red Diamond — A8UM9 — position and weather

sailwx.info

Track history (hours):
 
Tides and Currents Weather Stations Pressure Air Temp Water Temp Dewpoint Dewpoint Depression Visibility Wind Speed Wind Dir Waves Ship Positions

Red Diamond

Last reported at 2015-Apr-27 00:26 UTC. Time now 2015-May-23 11:54 UTC.
Position N 30°52' E 032°19'.
Warning: this ship's position is 26 days out of date.

Length 190 m; draft 10.9 m.

Type: Cargo ship. MMSI: 636014524.

Date/timePositionNaut miles runAvg speedWind from/ knotsBaromVisibWave heightAir tempDewpointWater temp
2015-Apr-27 00:26N 30°52' E 032°19'20 8.9
2015-Apr-26 22:10N 31°12' E 032°18'5 6.3
2015-Apr-26 21:26N 31°17' E 032°20'6 6.5
2015-Apr-26 20:33N 31°22' E 032°20'1 0.8
2015-Apr-26 19:11N 31°22' E 032°19'0 0.0
2015-Apr-26 18:29N 31°22' E 032°19'0 0.0
2015-Apr-26 17:32N 31°22' E 032°19'0 0.0
2015-Apr-26 16:32N 31°22' E 032°19'0 0.0
2015-Apr-26 15:32N 31°22' E 032°19'0 0.0
2015-Apr-26 14:32N 31°22' E 032°19'0 0.0
2015-Apr-26 13:32N 31°22' E 032°19'14 3.9
2015-Apr-26 10:05N 31°34' E 032°10'5 8.7
2015-Apr-26 09:33N 31°37' E 032°06'36 8.9
2015-Apr-26 05:33N 31°57' E 031°32'38 9.0
2015-Apr-26 01:19N 32°06' E 030°48'25 9.1
2015-Apr-25 22:31N 32°15' E 030°20'9 8.8
2015-Apr-25 21:30N 32°17' E 030°10'17 8.8
2015-Apr-25 19:31N 32°22' E 029°50'13 9.1
2015-Apr-25 18:04N 32°25' E 029°35'5 8.9
2015-Apr-25 17:32N 32°27' E 029°30'  
2015-Apr-23 07:10N 35°03' E 018°39'56 9.9
2015-Apr-23 01:33N 35°18' E 017°33'10 9.9
2015-Apr-23 00:33N 35°21' E 017°22'10 9.9
2015-Apr-22 23:33N 35°23' E 017°10'10 9.9
2015-Apr-22 22:33N 35°26' E 016°58'20 9.8
2015-Apr-22 20:32N 35°32' E 016°35'20 9.9
2015-Apr-22 18:31N 35°37' E 016°12'10 9.9
2015-Apr-22 17:33N 35°40' E 016°00'31 9.8
2015-Apr-22 14:26N 35°48' E 015°24'21 9.9
2015-Apr-22 12:20N 35°54' E 014°59'7 9.5
2015-Apr-22 11:34N 35°55' E 014°50'4 4.0
2015-Apr-22 10:32N 35°55' E 014°45'0 0.0
2015-Apr-22 09:32N 35°55' E 014°45'0 0.0
2015-Apr-22 08:32N 35°55' E 014°45'0 0.0
2015-Apr-22 07:32N 35°55' E 014°45'0 0.0
2015-Apr-22 06:32N 35°55' E 014°45'0 0.0
2015-Apr-22 05:32N 35°55' E 014°45'0 0.0
2015-Apr-22 04:32N 35°55' E 014°45'0 0.0
2015-Apr-22 03:32N 35°55' E 014°45'0 0.0
2015-Apr-22 02:32N 35°55' E 014°45'0 0.0
2015-Apr-22 01:32N 35°55' E 014°45'0 0.0
2015-Apr-22 00:32N 35°55' E 014°45'0 0.1
2015-Apr-21 23:32N 35°55' E 014°45'6 5.7
2015-Apr-21 22:33N 35°57' E 014°39'6 5.6
2015-Apr-21 21:33N 36°00' E 014°33'1010.1
2015-Apr-21 20:33N 36°07' E 014°24'10 9.9
2015-Apr-21 19:33N 36°12' E 014°14'10 9.9
2015-Apr-21 18:33N 36°16' E 014°02'10 9.7
2015-Apr-21 17:33N 36°20' E 013°51'9 9.6
2015-Apr-21 16:33N 36°24' E 013°41'10 9.7
2015-Apr-21 15:33N 36°28' E 013°30'9 9.3
2015-Apr-21 14:33N 36°32' E 013°19'9 9.3
2015-Apr-21 13:33N 36°35' E 013°08'9 9.4
2015-Apr-21 12:33N 36°39' E 012°58'11 9.6
2015-Apr-21 11:25N 36°44' E 012°45'  
Track history (hours):
 
Tides and Currents Weather Stations Pressure Air Temp Water Temp Dewpoint Dewpoint Depression Visibility Wind Speed Wind Dir Waves Ship Positions

Red Diamond

Last reported at 2015-Apr-27 00:26 UTC. Time now 2015-May-23 11:54 UTC.
Position N 30°52' E 032°19'.
Warning: this ship's position is 26 days out of date.

Length 190 m; draft 10.9 m.

Type: Cargo ship. MMSI: 636014524.

Date/timePositionNaut miles runAvg speedWind from/ knotsBaromVisibWave heightAir tempDewpointWater temp
2015-Apr-27 00:26N 30°52' E 032°19'20 8.9
2015-Apr-26 22:10N 31°12' E 032°18'5 6.3
2015-Apr-26 21:26N 31°17' E 032°20'6 6.5
2015-Apr-26 20:33N 31°22' E 032°20'1 0.8
2015-Apr-26 19:11N 31°22' E 032°19'0 0.0
2015-Apr-26 18:29N 31°22' E 032°19'0 0.0
2015-Apr-26 17:32N 31°22' E 032°19'0 0.0
2015-Apr-26 16:32N 31°22' E 032°19'0 0.0
2015-Apr-26 15:32N 31°22' E 032°19'0 0.0
2015-Apr-26 14:32N 31°22' E 032°19'0 0.0
2015-Apr-26 13:32N 31°22' E 032°19'14 3.9
2015-Apr-26 10:05N 31°34' E 032°10'5 8.7
2015-Apr-26 09:33N 31°37' E 032°06'36 8.9
2015-Apr-26 05:33N 31°57' E 031°32'38 9.0
2015-Apr-26 01:19N 32°06' E 030°48'25 9.1
2015-Apr-25 22:31N 32°15' E 030°20'9 8.8
2015-Apr-25 21:30N 32°17' E 030°10'17 8.8
2015-Apr-25 19:31N 32°22' E 029°50'13 9.1
2015-Apr-25 18:04N 32°25' E 029°35'5 8.9
2015-Apr-25 17:32N 32°27' E 029°30'  
2015-Apr-23 07:10N 35°03' E 018°39'56 9.9
2015-Apr-23 01:33N 35°18' E 017°33'10 9.9
2015-Apr-23 00:33N 35°21' E 017°22'10 9.9
2015-Apr-22 23:33N 35°23' E 017°10'10 9.9
2015-Apr-22 22:33N 35°26' E 016°58'20 9.8
2015-Apr-22 20:32N 35°32' E 016°35'20 9.9
2015-Apr-22 18:31N 35°37' E 016°12'10 9.9
2015-Apr-22 17:33N 35°40' E 016°00'31 9.8
2015-Apr-22 14:26N 35°48' E 015°24'21 9.9
2015-Apr-22 12:20N 35°54' E 014°59'7 9.5
2015-Apr-22 11:34N 35°55' E 014°50'4 4.0
2015-Apr-22 10:32N 35°55' E 014°45'0 0.0
2015-Apr-22 09:32N 35°55' E 014°45'0 0.0
2015-Apr-22 08:32N 35°55' E 014°45'0 0.0
2015-Apr-22 07:32N 35°55' E 014°45'0 0.0
2015-Apr-22 06:32N 35°55' E 014°45'0 0.0
2015-Apr-22 05:32N 35°55' E 014°45'0 0.0
2015-Apr-22 04:32N 35°55' E 014°45'0 0.0
2015-Apr-22 03:32N 35°55' E 014°45'0 0.0
2015-Apr-22 02:32N 35°55' E 014°45'0 0.0
2015-Apr-22 01:32N 35°55' E 014°45'0 0.0
2015-Apr-22 00:32N 35°55' E 014°45'0 0.1
2015-Apr-21 23:32N 35°55' E 014°45'6 5.7
2015-Apr-21 22:33N 35°57' E 014°39'6 5.6
2015-Apr-21 21:33N 36°00' E 014°33'1010.1
2015-Apr-21 20:33N 36°07' E 014°24'10 9.9
2015-Apr-21 19:33N 36°12' E 014°14'10 9.9
2015-Apr-21 18:33N 36°16' E 014°02'10 9.7
2015-Apr-21 17:33N 36°20' E 013°51'9 9.6
2015-Apr-21 16:33N 36°24' E 013°41'10 9.7
2015-Apr-21 15:33N 36°28' E 013°30'9 9.3
2015-Apr-21 14:33N 36°32' E 013°19'9 9.3
2015-Apr-21 13:33N 36°35' E 013°08'9 9.4
2015-Apr-21 12:33N 36°39' E 012°58'11 9.6
2015-Apr-21 11:25N 36°44' E 012°45'  

Dump ship's entire track history